sensor_id;sensor_type;location;lat;lon;timestamp;P1;durP1;ratioP1;P2;durP2;ratioP2
20067;SDS011;10194;50.824;7.134;2023-01-13T00:01:44;144.60;;;98.43;;
20067;SDS011;10194;50.824;7.134;2023-01-13T00:04:10;143.70;;;98.03;;
20067;SDS011;10194;50.824;7.134;2023-01-13T00:06:36;147.20;;;102.83;;
20067;SDS011;10194;50.824;7.134;2023-01-13T00:09:01;150.87;;;112.33;;
20067;SDS011;10194;50.824;7.134;2023-01-13T00:11:27;154.70;;;115.60;;
20067;SDS011;10194;50.824;7.134;2023-01-13T00:13:53;152.80;;;115.37;;
20067;SDS011;10194;50.824;7.134;2023-01-13T00:16:20;152.10;;;107.80;;
20067;SDS011;10194;50.824;7.134;2023-01-13T00:18:46;154.20;;;113.73;;
20067;SDS011;10194;50.824;7.134;2023-01-13T00:21:13;153.40;;;115.93;;
20067;SDS011;10194;50.824;7.134;2023-01-13T00:23:44;152.53;;;114.33;;
20067;SDS011;10194;50.824;7.134;2023-01-13T00:26:18;150.23;;;108.77;;
20067;SDS011;10194;50.824;7.134;2023-01-13T00:28:49;154.40;;;118.80;;
20067;SDS011;10194;50.824;7.134;2023-01-13T00:31:19;150.10;;;108.03;;
20067;SDS011;10194;50.824;7.134;2023-01-13T00:33:46;152.57;;;111.80;;
20067;SDS011;10194;50.824;7.134;2023-01-13T00:36:15;156.37;;;120.13;;
20067;SDS011;10194;50.824;7.134;2023-01-13T00:38:43;151.20;;;110.70;;
20067;SDS011;10194;50.824;7.134;2023-01-13T00:41:11;153.73;;;112.83;;
20067;SDS011;10194;50.824;7.134;2023-01-13T00:43:39;150.50;;;105.93;;
20067;SDS011;10194;50.824;7.134;2023-01-13T00:46:06;153.00;;;112.17;;
20067;SDS011;10194;50.824;7.134;2023-01-13T00:48:34;152.47;;;111.70;;
20067;SDS011;10194;50.824;7.134;2023-01-13T00:51:03;148.70;;;105.13;;
20067;SDS011;10194;50.824;7.134;2023-01-13T00:53:32;151.23;;;109.70;;
20067;SDS011;10194;50.824;7.134;2023-01-13T00:56:02;152.10;;;113.10;;
20067;SDS011;10194;50.824;7.134;2023-01-13T00:58:39;153.17;;;113.80;;
20067;SDS011;10194;50.824;7.134;2023-01-13T01:01:07;148.87;;;106.47;;
20067;SDS011;10194;50.824;7.134;2023-01-13T01:03:51;146.80;;;103.03;;
20067;SDS011;10194;50.824;7.134;2023-01-13T01:06:19;145.80;;;103.00;;
20067;SDS011;10194;50.824;7.134;2023-01-13T01:08:47;146.20;;;102.30;;
20067;SDS011;10194;50.824;7.134;2023-01-13T01:11:15;153.57;;;117.57;;
20067;SDS011;10194;50.824;7.134;2023-01-13T01:13:44;168.97;;;146.33;;
20067;SDS011;10194;50.824;7.134;2023-01-13T01:16:15;175.23;;;156.23;;
20067;SDS011;10194;50.824;7.134;2023-01-13T01:18:43;208.93;;;188.07;;
20067;SDS011;10194;50.824;7.134;2023-01-13T01:21:11;199.20;;;178.87;;
20067;SDS011;10194;50.824;7.134;2023-01-13T01:23:38;214.20;;;193.10;;
20067;SDS011;10194;50.824;7.134;2023-01-13T01:26:13;214.10;;;192.80;;
20067;SDS011;10194;50.824;7.134;2023-01-13T01:28:42;209.80;;;188.00;;
20067;SDS011;10194;50.824;7.134;2023-01-13T01:31:16;223.17;;;201.40;;
20067;SDS011;10194;50.824;7.134;2023-01-13T01:33:47;214.20;;;192.57;;
20067;SDS011;10194;50.824;7.134;2023-01-13T01:36:15;220.77;;;199.10;;
20067;SDS011;10194;50.824;7.134;2023-01-13T01:38:43;217.50;;;196.00;;
20067;SDS011;10194;50.824;7.134;2023-01-13T01:41:14;225.87;;;203.50;;
20067;SDS011;10194;50.824;7.134;2023-01-13T01:43:50;213.90;;;192.73;;
20067;SDS011;10194;50.824;7.134;2023-01-13T01:46:30;215.83;;;194.87;;
20067;SDS011;10194;50.824;7.134;2023-01-13T01:49:13;220.43;;;198.90;;
20067;SDS011;10194;50.824;7.134;2023-01-13T01:51:55;210.43;;;189.20;;
20067;SDS011;10194;50.824;7.134;2023-01-13T01:54:39;210.97;;;189.73;;
20067;SDS011;10194;50.824;7.134;2023-01-13T01:57:14;211.93;;;190.47;;
20067;SDS011;10194;50.824;7.134;2023-01-13T01:59:52;211.80;;;190.57;;
20067;SDS011;10194;50.824;7.134;2023-01-13T02:02:18;212.17;;;190.87;;
20067;SDS011;10194;50.824;7.134;2023-01-13T02:04:47;213.73;;;192.50;;
20067;SDS011;10194;50.824;7.134;2023-01-13T02:07:24;211.33;;;189.63;;
20067;SDS011;10194;50.824;7.134;2023-01-13T02:09:54;198.53;;;177.33;;
20067;SDS011;10194;50.824;7.134;2023-01-13T02:12:23;201.87;;;180.23;;
20067;SDS011;10194;50.824;7.134;2023-01-13T02:15:00;204.20;;;182.60;;
20067;SDS011;10194;50.824;7.134;2023-01-13T02:27:33;191.30;;;168.70;;
20067;SDS011;10194;50.824;7.134;2023-01-13T02:30:38;194.03;;;169.50;;
20067;SDS011;10194;50.824;7.134;2023-01-13T02:38:45;208.70;;;187.10;;
20067;SDS011;10194;50.824;7.134;2023-01-13T02:42:04;214.47;;;192.50;;
20067;SDS011;10194;50.824;7.134;2023-01-13T02:44:44;205.47;;;183.90;;
20067;SDS011;10194;50.824;7.134;2023-01-13T02:47:18;213.77;;;191.97;;
20067;SDS011;10194;50.824;7.134;2023-01-13T02:49:51;214.03;;;191.70;;
20067;SDS011;10194;50.824;7.134;2023-01-13T02:52:24;214.00;;;192.17;;
20067;SDS011;10194;50.824;7.134;2023-01-13T02:55:05;208.87;;;187.77;;
20067;SDS011;10194;50.824;7.134;2023-01-13T02:57:54;207.13;;;185.50;;
20067;SDS011;10194;50.824;7.134;2023-01-13T03:00:23;212.07;;;190.90;;
20067;SDS011;10194;50.824;7.134;2023-01-13T03:02:51;210.97;;;190.07;;
20067;SDS011;10194;50.824;7.134;2023-01-13T03:05:17;211.10;;;189.80;;
20067;SDS011;10194;50.824;7.134;2023-01-13T03:11:01;210.80;;;189.27;;
20067;SDS011;10194;50.824;7.134;2023-01-13T03:13:54;207.20;;;186.17;;
20067;SDS011;10194;50.824;7.134;2023-01-13T03:17:09;204.30;;;182.93;;
20067;SDS011;10194;50.824;7.134;2023-01-13T03:22:27;207.57;;;186.43;;
20067;SDS011;10194;50.824;7.134;2023-01-13T03:27:47;211.63;;;190.33;;
20067;SDS011;10194;50.824;7.134;2023-01-13T03:30:36;202.43;;;181.37;;
20067;SDS011;10194;50.824;7.134;2023-01-13T03:35:42;207.53;;;186.03;;
20067;SDS011;10194;50.824;7.134;2023-01-13T03:38:16;206.27;;;184.87;;
20067;SDS011;10194;50.824;7.134;2023-01-13T03:40:47;214.77;;;192.93;;
20067;SDS011;10194;50.824;7.134;2023-01-13T03:43:19;207.47;;;185.90;;
20067;SDS011;10194;50.824;7.134;2023-01-13T03:46:20;201.00;;;179.97;;
20067;SDS011;10194;50.824;7.134;2023-01-13T03:48:58;200.60;;;179.53;;
20067;SDS011;10194;50.824;7.134;2023-01-13T03:51:27;204.97;;;183.53;;
20067;SDS011;10194;50.824;7.134;2023-01-13T03:53:57;206.03;;;184.37;;
20067;SDS011;10194;50.824;7.134;2023-01-13T03:56:35;202.53;;;181.03;;
20067;SDS011;10194;50.824;7.134;2023-01-13T03:59:15;198.67;;;176.20;;
20067;SDS011;10194;50.824;7.134;2023-01-13T04:01:58;199.37;;;178.27;;
20067;SDS011;10194;50.824;7.134;2023-01-13T04:04:32;194.17;;;173.17;;
20067;SDS011;10194;50.824;7.134;2023-01-13T04:07:09;198.60;;;177.60;;
20067;SDS011;10194;50.824;7.134;2023-01-13T04:09:55;194.10;;;172.60;;
20067;SDS011;10194;50.824;7.134;2023-01-13T04:12:25;193.43;;;171.23;;
20067;SDS011;10194;50.824;7.134;2023-01-13T04:15:21;188.87;;;168.13;;
20067;SDS011;10194;50.824;7.134;2023-01-13T04:17:52;193.43;;;172.43;;
20067;SDS011;10194;50.824;7.134;2023-01-13T04:20:18;195.17;;;169.07;;
20067;SDS011;10194;50.824;7.134;2023-01-13T04:22:44;190.40;;;166.03;;
20067;SDS011;10194;50.824;7.134;2023-01-13T04:25:10;189.37;;;166.00;;
20067;SDS011;10194;50.824;7.134;2023-01-13T04:27:36;187.50;;;165.07;;
20067;SDS011;10194;50.824;7.134;2023-01-13T04:30:02;192.23;;;168.77;;
20067;SDS011;10194;50.824;7.134;2023-01-13T04:32:30;191.60;;;164.80;;
20067;SDS011;10194;50.824;7.134;2023-01-13T04:34:56;191.40;;;168.30;;
20067;SDS011;10194;50.824;7.134;2023-01-13T04:37:22;188.90;;;163.83;;
20067;SDS011;10194;50.824;7.134;2023-01-13T04:39:47;190.17;;;157.57;;
20067;SDS011;10194;50.824;7.134;2023-01-13T04:42:13;187.50;;;155.30;;
20067;SDS011;10194;50.824;7.134;2023-01-13T04:44:39;189.23;;;158.87;;
20067;SDS011;10194;50.824;7.134;2023-01-13T04:47:04;184.87;;;149.60;;
20067;SDS011;10194;50.824;7.134;2023-01-13T04:49:30;187.30;;;148.77;;
20067;SDS011;10194;50.824;7.134;2023-01-13T04:51:57;185.10;;;146.20;;
20067;SDS011;10194;50.824;7.134;2023-01-13T04:54:23;189.83;;;147.17;;
20067;SDS011;10194;50.824;7.134;2023-01-13T04:56:48;188.50;;;148.83;;
20067;SDS011;10194;50.824;7.134;2023-01-13T04:59:14;188.33;;;146.93;;
20067;SDS011;10194;50.824;7.134;2023-01-13T05:01:40;187.53;;;149.83;;
20067;SDS011;10194;50.824;7.134;2023-01-13T05:04:06;189.27;;;143.57;;
20067;SDS011;10194;50.824;7.134;2023-01-13T05:06:32;190.40;;;139.13;;
20067;SDS011;10194;50.824;7.134;2023-01-13T05:08:58;188.13;;;139.40;;
20067;SDS011;10194;50.824;7.134;2023-01-13T05:11:24;187.03;;;140.40;;
20067;SDS011;10194;50.824;7.134;2023-01-13T05:14:08;189.77;;;138.00;;
20067;SDS011;10194;50.824;7.134;2023-01-13T05:16:54;192.20;;;139.50;;
20067;SDS011;10194;50.824;7.134;2023-01-13T05:19:31;189.83;;;143.27;;
20067;SDS011;10194;50.824;7.134;2023-01-13T05:21:59;187.07;;;137.60;;
20067;SDS011;10194;50.824;7.134;2023-01-13T05:24:45;188.97;;;138.27;;
20067;SDS011;10194;50.824;7.134;2023-01-13T05:27:30;184.50;;;140.13;;
20067;SDS011;10194;50.824;7.134;2023-01-13T05:29:56;186.50;;;139.00;;
20067;SDS011;10194;50.824;7.134;2023-01-13T05:32:22;191.23;;;141.03;;
20067;SDS011;10194;50.824;7.134;2023-01-13T05:34:49;187.23;;;140.57;;
20067;SDS011;10194;50.824;7.134;2023-01-13T05:37:15;194.37;;;136.67;;
20067;SDS011;10194;50.824;7.134;2023-01-13T05:39:41;193.00;;;138.50;;
20067;SDS011;10194;50.824;7.134;2023-01-13T05:42:26;193.80;;;135.80;;
20067;SDS011;10194;50.824;7.134;2023-01-13T05:45:10;185.80;;;136.97;;
20067;SDS011;10194;50.824;7.134;2023-01-13T05:47:36;211.10;;;148.70;;
20067;SDS011;10194;50.824;7.134;2023-01-13T05:50:02;190.77;;;143.50;;
20067;SDS011;10194;50.824;7.134;2023-01-13T05:52:29;188.90;;;138.93;;
20067;SDS011;10194;50.824;7.134;2023-01-13T05:54:54;192.80;;;150.03;;
20067;SDS011;10194;50.824;7.134;2023-01-13T05:57:20;192.33;;;141.30;;
20067;SDS011;10194;50.824;7.134;2023-01-13T05:59:46;189.00;;;141.63;;
20067;SDS011;10194;50.824;7.134;2023-01-13T06:02:12;191.80;;;141.20;;
20067;SDS011;10194;50.824;7.134;2023-01-13T06:04:37;188.43;;;140.13;;
20067;SDS011;10194;50.824;7.134;2023-01-13T06:07:03;190.93;;;142.10;;
20067;SDS011;10194;50.824;7.134;2023-01-13T06:09:29;190.43;;;137.17;;
20067;SDS011;10194;50.824;7.134;2023-01-13T06:11:55;192.30;;;138.63;;
20067;SDS011;10194;50.824;7.134;2023-01-13T06:14:21;191.80;;;141.70;;
20067;SDS011;10194;50.824;7.134;2023-01-13T06:16:47;191.13;;;140.50;;
20067;SDS011;10194;50.824;7.134;2023-01-13T06:19:12;187.67;;;147.23;;
20067;SDS011;10194;50.824;7.134;2023-01-13T06:21:38;192.13;;;142.33;;
20067;SDS011;10194;50.824;7.134;2023-01-13T06:24:05;190.63;;;145.27;;
20067;SDS011;10194;50.824;7.134;2023-01-13T06:26:33;190.23;;;149.10;;
20067;SDS011;10194;50.824;7.134;2023-01-13T06:29:02;195.17;;;145.57;;
20067;SDS011;10194;50.824;7.134;2023-01-13T06:31:29;192.93;;;145.93;;
20067;SDS011;10194;50.824;7.134;2023-01-13T06:33:57;192.47;;;148.47;;
20067;SDS011;10194;50.824;7.134;2023-01-13T06:36:29;193.80;;;151.93;;
20067;SDS011;10194;50.824;7.134;2023-01-13T06:39:00;189.60;;;141.70;;
20067;SDS011;10194;50.824;7.134;2023-01-13T06:41:28;193.23;;;147.17;;
20067;SDS011;10194;50.824;7.134;2023-01-13T06:44:15;193.60;;;150.93;;
20067;SDS011;10194;50.824;7.134;2023-01-13T06:46:42;191.07;;;143.93;;
20067;SDS011;10194;50.824;7.134;2023-01-13T06:49:08;194.57;;;140.93;;
20067;SDS011;10194;50.824;7.134;2023-01-13T06:51:34;197.03;;;143.70;;
20067;SDS011;10194;50.824;7.134;2023-01-13T06:54:00;193.20;;;144.03;;
20067;SDS011;10194;50.824;7.134;2023-01-13T06:56:25;195.47;;;145.20;;
20067;SDS011;10194;50.824;7.134;2023-01-13T06:58:51;191.97;;;147.33;;
20067;SDS011;10194;50.824;7.134;2023-01-13T07:01:17;198.50;;;144.63;;
20067;SDS011;10194;50.824;7.134;2023-01-13T07:03:42;191.93;;;141.03;;
20067;SDS011;10194;50.824;7.134;2023-01-13T07:06:08;193.97;;;146.07;;
20067;SDS011;10194;50.824;7.134;2023-01-13T07:08:34;198.67;;;147.00;;
20067;SDS011;10194;50.824;7.134;2023-01-13T07:11:02;194.70;;;149.30;;
20067;SDS011;10194;50.824;7.134;2023-01-13T07:13:28;194.73;;;153.30;;
20067;SDS011;10194;50.824;7.134;2023-01-13T07:16:12;195.27;;;148.20;;
20067;SDS011;10194;50.824;7.134;2023-01-13T07:18:38;191.67;;;145.30;;
20067;SDS011;10194;50.824;7.134;2023-01-13T07:21:07;193.23;;;144.53;;
20067;SDS011;10194;50.824;7.134;2023-01-13T07:23:37;191.50;;;142.73;;
20067;SDS011;10194;50.824;7.134;2023-01-13T07:26:05;194.40;;;146.27;;
20067;SDS011;10194;50.824;7.134;2023-01-13T07:28:33;190.80;;;143.10;;
20067;SDS011;10194;50.824;7.134;2023-01-13T07:30:59;196.57;;;144.17;;
20067;SDS011;10194;50.824;7.134;2023-01-13T07:33:27;194.17;;;143.10;;
20067;SDS011;10194;50.824;7.134;2023-01-13T07:35:58;195.27;;;147.63;;
20067;SDS011;10194;50.824;7.134;2023-01-13T07:38:26;190.60;;;144.00;;
20067;SDS011;10194;50.824;7.134;2023-01-13T07:40:53;190.60;;;147.20;;
20067;SDS011;10194;50.824;7.134;2023-01-13T07:43:19;191.97;;;148.60;;
20067;SDS011;10194;50.824;7.134;2023-01-13T07:46:06;190.23;;;152.17;;
20067;SDS011;10194;50.824;7.134;2023-01-13T07:48:32;190.03;;;148.63;;
20067;SDS011;10194;50.824;7.134;2023-01-13T07:51:06;194.90;;;153.67;;
20067;SDS011;10194;50.824;7.134;2023-01-13T07:53:35;193.80;;;148.23;;
20067;SDS011;10194;50.824;7.134;2023-01-13T07:56:01;193.33;;;145.97;;
20067;SDS011;10194;50.824;7.134;2023-01-13T07:58:31;193.80;;;150.47;;
20067;SDS011;10194;50.824;7.134;2023-01-13T08:00:58;196.20;;;151.27;;
20067;SDS011;10194;50.824;7.134;2023-01-13T08:03:25;191.33;;;144.43;;
20067;SDS011;10194;50.824;7.134;2023-01-13T08:05:51;192.10;;;143.87;;
20067;SDS011;10194;50.824;7.134;2023-01-13T08:08:17;194.37;;;140.80;;
20067;SDS011;10194;50.824;7.134;2023-01-13T08:10:43;196.37;;;142.87;;
20067;SDS011;10194;50.824;7.134;2023-01-13T08:13:15;191.10;;;145.73;;
20067;SDS011;10194;50.824;7.134;2023-01-13T08:15:50;196.70;;;143.43;;
20067;SDS011;10194;50.824;7.134;2023-01-13T08:18:22;188.67;;;142.93;;
20067;SDS011;10194;50.824;7.134;2023-01-13T08:20:48;188.27;;;141.17;;
20067;SDS011;10194;50.824;7.134;2023-01-13T08:23:16;187.83;;;142.73;;
20067;SDS011;10194;50.824;7.134;2023-01-13T08:25:43;190.87;;;142.97;;
20067;SDS011;10194;50.824;7.134;2023-01-13T08:28:10;190.63;;;141.17;;
20067;SDS011;10194;50.824;7.134;2023-01-13T08:30:36;195.73;;;143.67;;
20067;SDS011;10194;50.824;7.134;2023-01-13T08:33:04;191.13;;;143.87;;
20067;SDS011;10194;50.824;7.134;2023-01-13T08:35:32;189.87;;;141.37;;
20067;SDS011;10194;50.824;7.134;2023-01-13T08:38:03;190.40;;;143.03;;
20067;SDS011;10194;50.824;7.134;2023-01-13T08:40:29;188.60;;;143.10;;
20067;SDS011;10194;50.824;7.134;2023-01-13T08:42:56;188.97;;;144.60;;
20067;SDS011;10194;50.824;7.134;2023-01-13T08:45:22;188.10;;;143.67;;
20067;SDS011;10194;50.824;7.134;2023-01-13T08:47:48;192.87;;;144.13;;
20067;SDS011;10194;50.824;7.134;2023-01-13T08:50:14;194.83;;;150.27;;
20067;SDS011;10194;50.824;7.134;2023-01-13T08:52:42;189.77;;;147.57;;
20067;SDS011;10194;50.824;7.134;2023-01-13T08:55:08;188.13;;;140.00;;
20067;SDS011;10194;50.824;7.134;2023-01-13T08:57:35;188.20;;;139.17;;
20067;SDS011;10194;50.824;7.134;2023-01-13T09:00:01;192.70;;;140.77;;
20067;SDS011;10194;50.824;7.134;2023-01-13T09:02:28;191.07;;;144.53;;
20067;SDS011;10194;50.824;7.134;2023-01-13T09:04:54;195.60;;;144.43;;
20067;SDS011;10194;50.824;7.134;2023-01-13T09:07:20;195.33;;;143.70;;
20067;SDS011;10194;50.824;7.134;2023-01-13T09:09:46;194.70;;;147.13;;
20067;SDS011;10194;50.824;7.134;2023-01-13T09:12:12;197.07;;;144.93;;
20067;SDS011;10194;50.824;7.134;2023-01-13T09:14:59;200.27;;;145.20;;
20067;SDS011;10194;50.824;7.134;2023-01-13T09:17:25;194.13;;;144.70;;
20067;SDS011;10194;50.824;7.134;2023-01-13T09:19:51;197.27;;;146.00;;
20067;SDS011;10194;50.824;7.134;2023-01-13T09:22:18;204.80;;;149.85;;
20067;SDS011;10194;50.824;7.134;2023-01-13T09:24:44;203.37;;;149.60;;
20067;SDS011;10194;50.824;7.134;2023-01-13T09:27:11;198.77;;;141.90;;
20067;SDS011;10194;50.824;7.134;2023-01-13T09:29:39;203.27;;;144.23;;
20067;SDS011;10194;50.824;7.134;2023-01-13T09:32:05;199.73;;;143.00;;
20067;SDS011;10194;50.824;7.134;2023-01-13T09:34:31;206.23;;;144.63;;
20067;SDS011;10194;50.824;7.134;2023-01-13T09:37:16;201.57;;;146.63;;
20067;SDS011;10194;50.824;7.134;2023-01-13T09:39:42;201.30;;;154.90;;
20067;SDS011;10194;50.824;7.134;2023-01-13T09:45:42;201.07;;;150.17;;
20067;SDS011;10194;50.824;7.134;2023-01-13T09:48:49;198.80;;;150.67;;
20067;SDS011;10194;50.824;7.134;2023-01-13T09:51:18;201.70;;;153.67;;
20067;SDS011;10194;50.824;7.134;2023-01-13T09:54:05;203.03;;;160.73;;
20067;SDS011;10194;50.824;7.134;2023-01-13T09:56:40;199.80;;;174.07;;
20067;SDS011;10194;50.824;7.134;2023-01-13T09:59:07;205.17;;;174.20;;
20067;SDS011;10194;50.824;7.134;2023-01-13T10:01:39;210.10;;;186.63;;
20067;SDS011;10194;50.824;7.134;2023-01-13T10:04:18;210.83;;;173.80;;
20067;SDS011;10194;50.824;7.134;2023-01-13T10:06:48;213.80;;;179.80;;
20067;SDS011;10194;50.824;7.134;2023-01-13T10:09:24;217.00;;;192.93;;
20067;SDS011;10194;50.824;7.134;2023-01-13T10:11:58;216.33;;;189.40;;
20067;SDS011;10194;50.824;7.134;2023-01-13T10:14:54;213.37;;;175.93;;
20067;SDS011;10194;50.824;7.134;2023-01-13T10:17:25;211.90;;;188.03;;
20067;SDS011;10194;50.824;7.134;2023-01-13T10:20:02;214.13;;;188.73;;
20067;SDS011;10194;50.824;7.134;2023-01-13T10:26:15;213.50;;;186.97;;
20067;SDS011;10194;50.824;7.134;2023-01-13T10:29:00;220.70;;;197.27;;
20067;SDS011;10194;50.824;7.134;2023-01-13T10:31:25;226.50;;;202.50;;
20067;SDS011;10194;50.824;7.134;2023-01-13T10:33:58;229.00;;;204.83;;
20067;SDS011;10194;50.824;7.134;2023-01-13T10:36:28;226.27;;;202.37;;
20067;SDS011;10194;50.824;7.134;2023-01-13T10:38:56;227.47;;;203.47;;
20067;SDS011;10194;50.824;7.134;2023-01-13T10:41:39;227.10;;;202.67;;
20067;SDS011;10194;50.824;7.134;2023-01-13T10:44:08;233.10;;;208.77;;
20067;SDS011;10194;50.824;7.134;2023-01-13T10:46:50;230.97;;;206.57;;
20067;SDS011;10194;50.824;7.134;2023-01-13T10:49:24;237.50;;;213.20;;
20067;SDS011;10194;50.824;7.134;2023-01-13T10:52:01;226.60;;;202.57;;
20067;SDS011;10194;50.824;7.134;2023-01-13T10:54:28;233.23;;;209.57;;
20067;SDS011;10194;50.824;7.134;2023-01-13T10:57:17;230.67;;;206.93;;
20067;SDS011;10194;50.824;7.134;2023-01-13T10:59:48;236.37;;;212.70;;
20067;SDS011;10194;50.824;7.134;2023-01-13T11:07:23;242.43;;;218.37;;
20067;SDS011;10194;50.824;7.134;2023-01-13T11:10:14;245.17;;;220.97;;
20067;SDS011;10194;50.824;7.134;2023-01-13T11:15:22;248.53;;;223.83;;
20067;SDS011;10194;50.824;7.134;2023-01-13T11:21:23;246.27;;;221.93;;
20067;SDS011;10194;50.824;7.134;2023-01-13T11:24:21;245.27;;;220.47;;
20067;SDS011;10194;50.824;7.134;2023-01-13T11:27:23;241.90;;;217.30;;
20067;SDS011;10194;50.824;7.134;2023-01-13T11:38:33;244.73;;;220.67;;
20067;SDS011;10194;50.824;7.134;2023-01-13T11:41:34;245.67;;;221.23;;
20067;SDS011;10194;50.824;7.134;2023-01-13T11:46:50;243.30;;;219.03;;
20067;SDS011;10194;50.824;7.134;2023-01-13T11:49:35;242.50;;;218.30;;
20067;SDS011;10194;50.824;7.134;2023-01-13T11:57:54;240.20;;;215.90;;
20067;SDS011;10194;50.824;7.134;2023-01-13T12:12:24;234.83;;;211.17;;
20067;SDS011;10194;50.824;7.134;2023-01-13T12:24:23;210.37;;;181.60;;
20067;SDS011;10194;50.824;7.134;2023-01-13T12:30:39;215.87;;;187.37;;
20067;SDS011;10194;50.824;7.134;2023-01-13T12:33:43;218.23;;;193.47;;
20067;SDS011;10194;50.824;7.134;2023-01-13T12:36:55;212.97;;;189.47;;
20067;SDS011;10194;50.824;7.134;2023-01-13T12:42:47;216.80;;;192.43;;
20067;SDS011;10194;50.824;7.134;2023-01-13T12:45:43;226.37;;;202.70;;
20067;SDS011;10194;50.824;7.134;2023-01-13T12:51:32;220.70;;;197.07;;
20067;SDS011;10194;50.824;7.134;2023-01-13T12:54:31;220.87;;;197.50;;
20067;SDS011;10194;50.824;7.134;2023-01-13T13:07:52;226.53;;;202.37;;
20067;SDS011;10194;50.824;7.134;2023-01-13T13:10:32;235.70;;;211.60;;
20067;SDS011;10194;50.824;7.134;2023-01-13T13:13:05;237.13;;;212.60;;
20067;SDS011;10194;50.824;7.134;2023-01-13T13:15:47;235.47;;;210.50;;
20067;SDS011;10194;50.824;7.134;2023-01-13T13:29:00;238.60;;;213.87;;
20067;SDS011;10194;50.824;7.134;2023-01-13T13:40:37;202.17;;;153.90;;
20067;SDS011;10194;50.824;7.134;2023-01-13T13:43:25;206.87;;;159.93;;
20067;SDS011;10194;50.824;7.134;2023-01-13T13:49:14;198.43;;;150.00;;
20067;SDS011;10194;50.824;7.134;2023-01-13T13:52:06;200.10;;;154.03;;
20067;SDS011;10194;50.824;7.134;2023-01-13T13:54:36;196.53;;;154.37;;
20067;SDS011;10194;50.824;7.134;2023-01-13T13:57:14;195.83;;;157.40;;
20067;SDS011;10194;50.824;7.134;2023-01-13T13:59:43;193.17;;;156.77;;
20067;SDS011;10194;50.824;7.134;2023-01-13T14:02:17;200.00;;;158.37;;
20067;SDS011;10194;50.824;7.134;2023-01-13T14:04:49;199.57;;;161.43;;
20067;SDS011;10194;50.824;7.134;2023-01-13T14:07:16;195.77;;;159.17;;
20067;SDS011;10194;50.824;7.134;2023-01-13T14:09:49;204.40;;;154.73;;
20067;SDS011;10194;50.824;7.134;2023-01-13T14:14:54;203.17;;;151.43;;
20067;SDS011;10194;50.824;7.134;2023-01-13T14:17:23;201.13;;;150.13;;
20067;SDS011;10194;50.824;7.134;2023-01-13T14:19:55;199.33;;;145.50;;
20067;SDS011;10194;50.824;7.134;2023-01-13T14:22:32;197.90;;;142.47;;
20067;SDS011;10194;50.824;7.134;2023-01-13T14:24:58;198.17;;;144.90;;
20067;SDS011;10194;50.824;7.134;2023-01-13T14:27:26;203.57;;;146.37;;
20067;SDS011;10194;50.824;7.134;2023-01-13T14:29:54;197.20;;;144.37;;
20067;SDS011;10194;50.824;7.134;2023-01-13T14:32:25;198.87;;;142.00;;
20067;SDS011;10194;50.824;7.134;2023-01-13T14:34:59;199.63;;;146.80;;
20067;SDS011;10194;50.824;7.134;2023-01-13T14:37:31;199.93;;;142.60;;
20067;SDS011;10194;50.824;7.134;2023-01-13T14:40:27;203.27;;;144.90;;
20067;SDS011;10194;50.824;7.134;2023-01-13T14:43:15;207.70;;;151.40;;
20067;SDS011;10194;50.824;7.134;2023-01-13T14:46:19;196.13;;;144.73;;
20067;SDS011;10194;50.824;7.134;2023-01-13T14:48:39;201.33;;;145.00;;
20067;SDS011;10194;50.824;7.134;2023-01-13T14:51:11;198.93;;;147.13;;
20067;SDS011;10194;50.824;7.134;2023-01-13T14:53:45;199.87;;;150.23;;
20067;SDS011;10194;50.824;7.134;2023-01-13T14:59:31;197.97;;;147.33;;
20067;SDS011;10194;50.824;7.134;2023-01-13T15:07:41;200.63;;;149.47;;
20067;SDS011;10194;50.824;7.134;2023-01-13T15:10:20;204.40;;;147.03;;
20067;SDS011;10194;50.824;7.134;2023-01-13T15:13:43;200.30;;;144.07;;
20067;SDS011;10194;50.824;7.134;2023-01-13T15:16:19;201.27;;;145.60;;
20067;SDS011;10194;50.824;7.134;2023-01-13T15:18:50;200.67;;;145.23;;
20067;SDS011;10194;50.824;7.134;2023-01-13T15:21:17;206.70;;;151.13;;
20067;SDS011;10194;50.824;7.134;2023-01-13T15:23:43;198.63;;;149.00;;
20067;SDS011;10194;50.824;7.134;2023-01-13T15:26:16;204.63;;;147.77;;
20067;SDS011;10194;50.824;7.134;2023-01-13T15:28:48;199.97;;;141.73;;
20067;SDS011;10194;50.824;7.134;2023-01-13T15:31:15;199.57;;;147.27;;
20067;SDS011;10194;50.824;7.134;2023-01-13T15:33:41;195.97;;;142.43;;
20067;SDS011;10194;50.824;7.134;2023-01-13T15:38:57;198.40;;;140.93;;
20067;SDS011;10194;50.824;7.134;2023-01-13T15:41:24;198.87;;;144.47;;
20067;SDS011;10194;50.824;7.134;2023-01-13T15:44:10;195.70;;;143.67;;
20067;SDS011;10194;50.824;7.134;2023-01-13T15:46:55;199.87;;;141.73;;
20067;SDS011;10194;50.824;7.134;2023-01-13T15:49:30;197.30;;;145.53;;
20067;SDS011;10194;50.824;7.134;2023-01-13T15:52:23;202.43;;;149.27;;
20067;SDS011;10194;50.824;7.134;2023-01-13T15:54:51;194.53;;;142.20;;
20067;SDS011;10194;50.824;7.134;2023-01-13T15:59:54;198.13;;;143.17;;
20067;SDS011;10194;50.824;7.134;2023-01-13T16:02:22;201.10;;;142.03;;
20067;SDS011;10194;50.824;7.134;2023-01-13T16:04:49;199.93;;;146.53;;
20067;SDS011;10194;50.824;7.134;2023-01-13T16:07:18;199.63;;;142.70;;
20067;SDS011;10194;50.824;7.134;2023-01-13T16:09:45;204.23;;;150.40;;
20067;SDS011;10194;50.824;7.134;2023-01-13T16:12:11;207.13;;;151.07;;
20067;SDS011;10194;50.824;7.134;2023-01-13T16:14:37;198.30;;;153.53;;
20067;SDS011;10194;50.824;7.134;2023-01-13T16:17:10;211.23;;;156.67;;
20067;SDS011;10194;50.824;7.134;2023-01-13T16:19:43;215.73;;;159.47;;
20067;SDS011;10194;50.824;7.134;2023-01-13T16:22:10;223.53;;;163.73;;
20067;SDS011;10194;50.824;7.134;2023-01-13T16:24:37;216.77;;;158.00;;
20067;SDS011;10194;50.824;7.134;2023-01-13T16:27:11;205.30;;;159.77;;
20067;SDS011;10194;50.824;7.134;2023-01-13T16:29:43;204.20;;;151.90;;
20067;SDS011;10194;50.824;7.134;2023-01-13T16:32:11;209.93;;;150.40;;
20067;SDS011;10194;50.824;7.134;2023-01-13T16:34:38;203.73;;;143.13;;
20067;SDS011;10194;50.824;7.134;2023-01-13T16:37:05;205.47;;;148.17;;
20067;SDS011;10194;50.824;7.134;2023-01-13T16:39:47;212.13;;;149.87;;
20067;SDS011;10194;50.824;7.134;2023-01-13T16:42:13;202.43;;;148.37;;
20067;SDS011;10194;50.824;7.134;2023-01-13T16:44:39;197.00;;;146.20;;
20067;SDS011;10194;50.824;7.134;2023-01-13T16:47:05;198.17;;;144.47;;
20067;SDS011;10194;50.824;7.134;2023-01-13T16:49:40;203.17;;;145.67;;
20067;SDS011;10194;50.824;7.134;2023-01-13T16:52:05;198.67;;;150.53;;